Time;durP1;ratioP1;P1;durP2;ratioP2;P2;SDS_P1;SDS_P2;PMS_P1;PMS_P2;Temp;Humidity;BMP_temperature;BMP_pressure;BME280_temperature;BME280_humidity;BME280_pressure;Samples;Min_cycle;Max_cycle;Signal;HPM_P1;HPM_P2
2023/09/10 00:00:21;;;;;;;13.65;7.65;;;16.80;99.90;;;15.79;80.72;101315.97;4956080;28;20151;-74
2023/09/10 00:02:47;;;;;;;11.88;7.35;;;16.70;99.90;;;15.64;80.09;101316.84;4939734;29;20489;-74
2023/09/10 00:05:12;;;;;;;12.10;7.20;;;16.50;99.90;;;15.48;79.01;101310.72;4940407;29;20086;-74
2023/09/10 00:07:38;;;;;;;11.60;7.13;;;16.40;99.90;;;15.37;78.48;101314.84;4955133;28;20044;-74
2023/09/10 00:10:04;;;;;;;13.48;7.90;;;16.30;99.90;;;15.28;78.91;101311.88;4938945;29;20494;-74
2023/09/10 00:12:30;;;;;;;16.83;8.88;;;16.20;99.90;;;15.24;79.57;101312.97;4942465;28;20039;-74
2023/09/10 00:14:56;;;;;;;14.80;7.57;;;16.10;99.90;;;15.18;80.12;101315.06;4961402;28;20390;-75
2023/09/10 00:17:21;;;;;;;10.60;7.68;;;16.10;99.90;;;15.15;80.83;101311.72;4927140;28;20486;-74
2023/09/10 00:19:47;;;;;;;16.50;9.55;;;16.00;99.90;;;15.12;81.47;101314.53;4943565;28;20117;-74
2023/09/10 00:22:13;;;;;;;;;;;16.00;99.90;;;15.06;82.00;101310.44;4960578;28;20024;-73
2023/09/10 00:24:38;;;;;;;18.20;9.07;;;16.00;99.90;;;15.02;82.57;101308.03;4943421;28;19945;-74
2023/09/10 00:27:04;;;;;;;15.20;8.02;;;15.90;99.90;;;14.99;82.54;101317.03;4943966;29;20065;-74
2023/09/10 00:29:30;;;;;;;10.68;8.88;;;15.90;99.90;;;14.98;82.57;101308.19;4943968;29;21253;-74
2023/09/10 00:31:56;;;;;;;15.25;10.05;;;15.90;99.90;;;14.99;83.51;101306.41;4943167;29;20039;-74
2023/09/10 00:34:21;;;;;;;11.60;9.55;;;15.90;99.90;;;15.00;85.19;101305.47;4959165;28;20406;-74
2023/09/10 00:36:47;;;;;;;13.18;9.23;;;15.80;99.90;;;14.97;86.23;101309.16;4944625;29;20031;-73
2023/09/10 00:39:13;;;;;;;17.70;8.50;;;15.80;99.90;;;14.95;88.48;101311.03;4943074;29;20042;-74
2023/09/10 00:41:38;;;;;;;13.77;8.90;;;15.80;99.90;;;14.94;89.15;101309.31;4943517;29;20098;-74
2023/09/10 00:44:05;;;;;;;12.40;8.57;;;15.80;99.90;;;14.96;89.12;101311.88;4942968;29;20131;-74
2023/09/10 00:46:31;;;;;;;17.15;10.05;;;15.80;99.90;;;14.89;91.07;101311.38;4944508;29;20082;-74
2023/09/10 00:48:59;;;;;;;17.17;10.18;;;15.80;99.90;;;14.88;91.32;101309.66;4960323;28;20489;-74
2023/09/10 00:51:26;;;;;;;13.20;8.30;;;15.80;99.90;;;14.86;90.20;101310.66;4947488;28;20050;-74
2023/09/10 00:53:52;;;;;;;12.45;8.63;;;15.80;99.90;;;14.80;86.78;101313.69;4943441;29;20122;-74
2023/09/10 00:56:20;;;;;;;12.25;9.88;;;15.70;99.90;;;14.75;86.35;101311.25;4927420;29;20035;-74
2023/09/10 00:58:47;;;;;;;16.13;10.18;;;15.70;99.90;;;14.60;89.92;101301.50;4945303;29;20113;-74
2023/09/10 01:01:13;;;;;;;16.50;10.20;;;15.60;99.90;;;14.59;92.45;101305.94;4945537;29;20035;-74
2023/09/10 01:03:40;;;;;;;16.13;10.13;;;15.60;99.90;;;14.64;93.11;101308.34;4944115;29;20028;-74
2023/09/10 01:06:06;;;;;;;17.70;10.48;;;15.60;99.90;;;14.61;93.76;101298.78;4943887;29;20023;-73
2023/09/10 01:08:32;;;;;;;18.00;10.60;;;15.60;99.90;;;14.66;92.46;101306.47;4942946;29;20065;-74
2023/09/10 01:11:27;;;;;;;18.27;9.88;;;15.60;99.90;;;14.67;91.32;101298.44;4944119;28;20047;-74
2023/09/10 01:14:18;;;;;;;13.25;8.38;;;15.60;99.90;;;14.62;89.95;101299.63;4943847;29;20114;-74
2023/09/10 01:17:02;;;;;;;16.30;10.68;;;15.50;99.90;;;14.55;88.82;101307.06;4959235;28;20049;-74
2023/09/10 01:19:50;;;;;;;14.98;10.15;;;15.50;99.90;;;14.37;93.42;101303.56;4940951;29;20031;-73
2023/09/10 01:22:45;;;;;;;11.70;9.85;;;15.40;99.90;;;14.36;96.36;101315.09;4920730;29;20051;-74
2023/09/10 01:25:12;;;;;;;13.90;9.00;;;15.40;99.90;;;14.40;97.18;101308.69;4918990;29;20088;-74
2023/09/10 01:27:37;;;;;;;15.05;10.10;;;15.40;99.90;;;14.44;96.24;101302.28;4921094;29;20422;-74
2023/09/10 01:30:04;;;;;;;13.82;9.48;;;15.40;99.90;;;14.40;98.07;101308.69;4919867;29;20032;-74
2023/09/10 01:32:36;;;;;;;10.82;8.90;;;15.40;99.90;;;14.45;97.67;101305.78;4921457;29;20079;-74
2023/09/10 01:35:40;;;;;;;17.10;9.30;;;15.30;99.90;;;14.26;91.78;101308.59;4918076;29;20039;-74
2023/09/10 01:38:17;;;;;;;15.15;8.25;;;15.20;99.90;;;14.16;88.77;101302.91;4902363;29;20059;-73
2023/09/10 01:41:15;;;;;;;13.50;9.82;;;15.10;99.90;;;14.10;87.97;101301.44;4919436;29;20043;-74
2023/09/10 01:43:42;;;;;;;13.73;9.88;;;15.00;99.90;;;14.05;88.85;101307.91;4902890;29;20445;-74
2023/09/10 01:46:09;;;;;;;12.55;8.60;;;15.00;99.90;;;14.00;89.15;101299.38;4921364;29;20087;-74
2023/09/10 01:48:35;;;;;;;12.00;8.20;;;15.00;99.90;;;13.96;88.46;101301.31;4904082;29;20060;-74
2023/09/10 01:51:00;;;;;;;15.63;11.32;;;14.90;99.90;;;13.95;89.56;101297.81;4920458;29;20071;-74
2023/09/10 01:53:26;;;;;;;15.85;9.60;;;14.90;99.90;;;13.84;94.82;101296.63;4919497;29;20051;-74
2023/09/10 01:55:52;;;;;;;18.35;10.40;;;14.90;99.90;;;13.88;98.30;101288.44;4920488;29;20083;-74
2023/09/10 01:58:17;;;;;;;17.38;10.68;;;14.90;99.90;;;13.95;100.00;101296.91;4923369;29;20047;-74
2023/09/10 02:00:45;;;;;;;13.95;9.88;;;15.00;99.90;;;14.02;100.00;101295.69;4942111;29;20034;-74
2023/09/10 02:03:11;;;;;;;14.27;9.98;;;15.00;99.90;;;14.09;100.00;101297.06;4955750;28;20498;-74
2023/09/10 02:05:36;;;;;;;12.35;9.05;;;15.00;99.90;;;14.06;97.59;101296.38;4960296;28;20034;-74
2023/09/10 02:08:04;;;;;;;13.32;10.55;;;15.00;99.90;;;14.02;93.69;101290.41;4940353;28;20039;-74
2023/09/10 02:10:32;;;;;;;17.38;11.18;;;14.90;99.90;;;13.93;97.07;101285.56;4940495;29;20062;-74
2023/09/10 02:12:58;;;;;;;11.27;9.20;;;14.90;99.90;;;13.90;97.70;101291.88;4941214;29;20032;-74
2023/09/10 02:15:23;;;;;;;15.73;8.65;;;14.90;99.90;;;13.87;95.32;101284.09;4940986;29;20576;-74
2023/09/10 02:17:49;;;;;;;14.05;9.88;;;14.80;99.90;;;13.87;93.34;101285.91;4958510;28;20027;-74
2023/09/10 02:20:15;;;;;;;17.50;10.73;;;14.80;99.90;;;13.84;93.23;101291.34;4956543;28;20035;-74
2023/09/10 02:22:41;;;;;;;14.30;8.98;;;14.80;99.90;;;13.78;92.23;101287.22;4957051;28;20046;-74
2023/09/10 02:25:08;;;;;;;15.00;9.63;;;14.70;99.90;;;13.74;91.48;101289.16;4941411;28;20037;-73
2023/09/10 02:27:35;;;;;;;9.55;7.22;;;14.60;99.90;;;13.60;89.54;101291.63;4957564;28;20204;-74
2023/09/10 02:30:05;;;;;;;10.98;7.93;;;14.60;99.90;;;13.53;88.16;101287.59;4941145;29;20477;-74
2023/09/10 02:32:35;;;;;;;11.55;7.80;;;14.50;99.90;;;13.47;88.71;101283.47;4942547;29;20036;-74
2023/09/10 02:35:01;;;;;;;11.90;7.55;;;14.40;99.90;;;13.43;88.05;101287.19;4942111;29;20028;-74
2023/09/10 02:37:27;;;;;;;18.95;9.93;;;14.40;99.90;;;13.36;88.30;101293.72;4958804;28;20525;-74
2023/09/10 02:39:52;;;;;;;12.32;8.27;;;14.30;99.90;;;13.30;88.46;101292.25;4939947;28;20066;-74
2023/09/10 02:42:18;;;;;;;15.35;9.95;;;14.30;99.90;;;13.27;88.39;101291.50;4942508;29;20139;-74
2023/09/10 02:44:44;;;;;;;14.07;8.40;;;14.30;99.90;;;13.23;88.79;101289.94;4943749;29;20118;-74
2023/09/10 02:47:10;;;;;;;16.88;10.80;;;14.20;99.90;;;13.20;89.33;101293.59;4925265;29;20047;-74
2023/09/10 02:49:35;;;;;;;16.73;11.38;;;14.20;99.90;;;13.20;91.28;101293.59;4958451;28;20032;-74
2023/09/10 02:52:02;;;;;;;17.67;11.40;;;14.20;99.90;;;13.20;92.84;101296.25;4940377;29;20043;-73
2023/09/10 02:54:29;;;;;;;12.43;10.18;;;14.20;99.90;;;13.17;93.09;101288.44;4943092;28;20042;-74
2023/09/10 02:56:55;;;;;;;13.48;9.90;;;14.20;99.90;;;13.18;92.77;101287.53;4941609;29;20493;-74
2023/09/10 02:59:23;;;;;;;14.48;9.65;;;14.10;99.90;;;13.20;92.78;101288.31;4957062;28;20039;-74
2023/09/10 03:01:49;;;;;;;16.10;11.48;;;14.20;99.90;;;13.23;93.30;101287.28;4942000;28;20512;-74
2023/09/10 03:04:15;;;;;;;17.70;13.70;;;14.20;99.90;;;13.26;94.45;101293.31;4939651;29;20039;-74
2023/09/10 03:06:46;;;;;;;13.50;11.63;;;14.20;99.90;;;13.29;96.22;101293.16;4956958;28;20032;-74
2023/09/10 03:09:12;;;;;;;13.55;10.15;;;14.20;99.90;;;13.30;96.90;101291.38;4962662;28;20051;-73
2023/09/10 03:11:40;;;;;;;13.55;10.55;;;14.20;99.90;;;13.32;98.20;101282.44;4956679;28;20055;-74
2023/09/10 03:14:07;;;;;;;16.95;12.82;;;14.30;99.90;;;13.33;98.05;101294.72;4957183;28;20410;-74
2023/09/10 03:16:34;;;;;;;14.38;11.20;;;14.30;99.90;;;13.33;98.10;101289.44;4948203;28;20031;-74
2023/09/10 03:19:00;;;;;;;14.65;11.70;;;14.30;99.90;;;13.33;97.63;101285.94;4942700;28;20413;-74
2023/09/10 03:21:29;;;;;;;16.40;10.82;;;14.30;99.90;;;13.33;98.02;101283.31;4957284;28;20039;-74
2023/09/10 03:23:55;;;;;;;15.10;11.63;;;14.30;99.90;;;13.31;97.89;101280.72;4956170;28;20027;-73
2023/09/10 03:26:21;;;;;;;11.10;8.73;;;14.30;99.90;;;13.27;96.85;101284.41;4939168;29;20042;-74
2023/09/10 03:28:47;;;;;;;13.00;8.88;;;14.20;99.90;;;13.19;94.83;101283.06;4941622;29;20031;-74
2023/09/10 03:31:13;;;;;;;13.98;10.38;;;14.10;99.90;;;13.12;94.32;101275.44;4942465;29;20098;-74
2023/09/10 03:33:40;;;;;;;17.30;14.18;;;14.10;99.90;;;13.12;95.21;101278.09;4957585;28;20039;-74
2023/09/10 03:36:06;;;;;;;21.23;14.35;;;14.10;99.90;;;13.14;97.03;101272.72;4939955;29;20036;-74
2023/09/10 03:38:32;;;;;;;16.30;10.63;;;14.10;99.90;;;13.16;98.47;101284.09;4920983;29;20023;-74
2023/09/10 03:40:58;;;;;;;22.05;15.20;;;14.10;99.90;;;13.17;98.75;101275.22;4964185;28;20028;-74
2023/09/10 03:43:24;;;;;;;15.02;12.68;;;14.10;99.90;;;13.18;99.40;101276.94;4941409;29;20411;-74
2023/09/10 03:45:50;;;;;;;24.27;14.70;;;14.10;99.90;;;13.21;100.00;101274.13;4958679;28;20024;-74
2023/09/10 03:48:15;;;;;;;21.48;14.55;;;14.20;99.90;;;13.23;100.00;101274.91;4943674;29;20063;-74
2023/09/10 03:50:41;;;;;;;18.13;14.05;;;14.10;99.90;;;13.25;100.00;101278.34;4943046;29;20039;-74
2023/09/10 03:53:07;;;;;;;19.42;15.05;;;14.20;99.90;;;13.28;100.00;101283.53;4942506;29;20144;-74
2023/09/10 03:55:33;;;;;;;23.17;15.45;;;14.20;99.90;;;13.30;100.00;101281.69;4946433;29;20031;-74
2023/09/10 03:57:59;;;;;;;19.35;14.77;;;14.20;99.90;;;13.31;100.00;101272.78;4943378;29;20076;-74
2023/09/10 04:00:25;;;;;;;25.27;14.82;;;14.30;99.90;;;13.33;100.00;101276.22;4929206;29;20035;-74
2023/09/10 04:02:51;;;;;;;17.75;14.13;;;14.30;99.90;;;13.32;100.00;101274.50;4942609;28;20028;-73
2023/09/10 04:05:17;;;;;;;17.08;13.35;;;14.30;99.90;;;13.31;100.00;101272.78;4959620;28;20098;-74
2023/09/10 04:07:44;;;;;;;16.73;12.63;;;14.30;99.90;;;13.30;100.00;101276.38;4942279;28;20028;-74
2023/09/10 04:10:10;;;;;;;17.23;10.02;;;14.20;99.90;;;13.22;100.00;101285.59;4945014;29;20070;-74
2023/09/10 04:12:36;;;;;;;14.07;9.88;;;14.20;99.90;;;13.16;100.00;101286.72;4944226;29;20043;-74
2023/09/10 04:15:03;;;;;;;22.80;14.13;;;14.20;99.90;;;13.13;99.62;101278.94;4943877;28;20035;-74
2023/09/10 04:17:30;;;;;;;13.20;9.90;;;14.10;99.90;;;13.13;100.00;101286.88;4944729;29;20039;-74
2023/09/10 04:19:57;;;;;;;26.33;14.18;;;14.10;99.90;;;13.09;100.00;101282.69;4945617;29;20087;-74
2023/09/10 04:22:23;;;;;;;16.90;12.70;;;14.00;99.90;;;13.06;100.00;101282.81;4944149;29;20051;-73
2023/09/10 04:24:49;;;;;;;13.32;10.63;;;14.00;99.90;;;13.04;100.00;101289.97;4960539;28;20038;-74
2023/09/10 04:27:15;;;;;;;27.02;15.77;;;14.00;99.90;;;13.03;100.00;101283.81;4960047;28;20040;-74
2023/09/10 04:29:41;;;;;;;24.58;16.63;;;14.00;99.90;;;13.06;100.00;101288.09;4928781;29;20035;-74
2023/09/10 04:32:07;;;;;;;21.42;16.92;;;14.00;99.90;;;13.08;100.00;101279.16;4962041;28;20031;-74
2023/09/10 04:34:32;;;;;;;25.23;17.33;;;14.10;99.90;;;13.12;100.00;101277.25;4942855;29;20508;-74
2023/09/10 04:36:58;;;;;;;23.10;16.33;;;14.10;99.90;;;13.20;100.00;101287.44;4946819;28;20039;-74
2023/09/10 04:39:24;;;;;;;16.60;12.80;;;14.10;99.90;;;13.24;100.00;101281.06;4930518;29;20403;-74
2023/09/10 04:41:50;;;;;;;14.82;10.55;;;14.10;99.90;;;13.22;100.00;101288.25;4946948;28;20070;-73
2023/09/10 04:44:16;;;;;;;15.75;11.68;;;14.20;99.90;;;13.21;100.00;101292.66;4960665;28;20051;-74
2023/09/10 04:46:42;;;;;;;15.43;8.55;;;14.10;99.90;;;13.21;99.39;101291.78;4943527;29;20086;-73
2023/09/10 04:49:07;;;;;;;12.90;7.53;;;14.10;99.90;;;13.20;96.98;101290.94;4944825;28;20081;-74
2023/09/10 04:51:33;;;;;;;21.08;13.18;;;14.10;99.90;;;13.22;96.28;101293.53;4943204;29;20569;-74
2023/09/10 04:53:59;;;;;;;15.45;10.10;;;14.10;99.90;;;13.26;97.05;101285.38;4942533;29;20130;-74
2023/09/10 04:56:25;;;;;;;17.00;10.48;;;14.10;99.90;;;13.31;96.79;101291.31;4943306;29;20061;-74
2023/09/10 04:58:50;;;;;;;17.40;13.07;;;14.20;99.90;;;13.39;97.65;101290.06;4942349;28;20106;-74
2023/09/10 05:01:16;;;;;;;26.08;15.93;;;14.30;99.90;;;13.52;100.00;101294.69;4942117;29;20031;-74
2023/09/10 05:03:42;;;;;;;20.38;15.30;;;14.40;99.90;;;13.70;100.00;101298.19;4944791;28;20043;-74
2023/09/10 05:06:09;;;;;;;21.48;16.40;;;14.60;99.90;;;13.87;100.00;101302.63;4960201;28;20032;-73
2023/09/10 05:08:35;;;;;;;22.50;14.68;;;14.70;99.90;;;14.04;100.00;101304.41;4942839;28;20031;-74
2023/09/10 05:11:02;;;;;;;17.27;13.73;;;14.80;99.90;;;14.12;100.00;101307.53;4941695;29;20116;-74
2023/09/10 05:13:28;;;;;;;15.63;11.75;;;14.90;99.90;;;14.21;100.00;101307.94;4942097;29;20031;-74
2023/09/10 05:15:54;;;;;;;19.23;12.65;;;15.00;99.90;;;14.27;97.72;101310.28;4958243;28;20400;-74
2023/09/10 05:18:21;;;;;;;15.88;11.18;;;15.00;99.90;;;14.33;96.16;101312.63;4942825;28;20039;-73
2023/09/10 05:20:48;;;;;;;14.13;9.95;;;15.10;99.90;;;14.41;93.81;101313.06;4942606;29;20028;-74
2023/09/10 05:23:14;;;;;;;13.32;10.68;;;15.10;99.90;;;14.51;92.25;101311.66;4948917;28;20587;-74
2023/09/10 05:25:39;;;;;;;21.90;12.40;;;15.20;99.90;;;14.54;91.71;101314.13;4942576;29;20027;-74
2023/09/10 05:28:05;;;;;;;16.48;11.30;;;15.20;99.90;;;14.66;91.93;101311.75;4933169;29;20031;-74
2023/09/10 05:30:31;;;;;;;24.10;11.77;;;15.30;99.90;;;14.74;91.76;101309.56;4943379;29;20149;-74
2023/09/10 05:32:57;;;;;;;18.52;13.20;;;15.40;99.90;;;14.84;92.50;101316.06;4942705;28;20047;-74
2023/09/10 05:35:23;;;;;;;19.92;13.23;;;15.40;99.90;;;14.91;93.33;101314.78;4957389;28;20458;-74
2023/09/10 05:37:49;;;;;;;19.00;13.23;;;15.60;99.90;;;15.23;94.61;101321.91;4943331;29;20037;-74
2023/09/10 05:40:15;;;;;;;;;;;15.60;99.90;;;15.40;93.00;101324.44;4943881;28;20058;-74
2023/09/10 05:42:40;;;;;;;18.13;12.05;;;15.80;99.90;;;15.52;91.90;101325.53;4940185;28;19915;-74
2023/09/10 05:45:07;;;;;;;16.05;11.70;;;16.00;99.90;;;16.10;88.09;101330.09;4941929;29;20050;-74
2023/09/10 05:47:32;;;;;;;27.25;16.13;;;16.30;99.90;;;16.57;87.69;101339.63;4941974;28;20035;-74
2023/09/10 05:50:01;;;;;;;18.95;14.38;;;16.70;99.90;;;18.52;82.91;101346.38;4943123;29;20786;-74
2023/09/10 05:52:27;;;;;;;18.30;15.02;;;17.50;99.90;;;19.77;75.86;101354.28;4942931;29;20086;-74
2023/09/10 05:54:52;;;;;;;22.17;15.23;;;18.30;99.90;;;21.39;70.61;101372.75;4959224;28;20394;-74
2023/09/10 05:57:18;;;;;;;19.15;14.23;;;19.50;99.90;;;24.59;61.88;101398.25;4940875;29;20090;-74
2023/09/10 05:59:44;;;;;;;20.40;13.60;;;20.70;99.90;;;24.72;59.58;101392.53;4941663;29;20035;-75
2023/09/10 06:02:09;;;;;;;19.27;12.85;;;21.90;99.90;;;25.26;58.14;101406.22;4943932;29;20035;-74
2023/09/10 06:04:35;;;;;;;19.60;12.07;;;22.30;99.90;;;25.02;58.49;101404.88;4940276;29;20039;-75
2023/09/10 06:07:04;;;;;;;21.35;12.55;;;22.70;99.90;;;24.77;58.09;101401.88;4942099;29;20039;-74
2023/09/10 06:09:31;;;;;;;14.98;11.93;;;22.90;99.90;;;23.58;60.39;101388.81;4939454;28;20067;-74
2023/09/10 06:11:58;;;;;;;18.20;12.60;;;22.70;99.90;;;22.35;63.95;101376.34;4942600;28;20093;-74
2023/09/10 06:14:24;;;;;;;19.27;12.38;;;22.20;99.90;;;21.88;65.16;101371.38;4944028;29;20053;-74
2023/09/10 06:16:50;;;;;;;17.85;11.57;;;21.90;99.90;;;22.33;65.67;101383.69;4942524;28;20425;-75
2023/09/10 06:19:16;;;;;;;16.83;11.52;;;22.00;99.90;;;23.25;62.40;101383.69;4941199;28;20063;-74
2023/09/10 06:21:42;;;;;;;17.00;11.65;;;22.00;99.90;;;22.16;65.06;101368.16;4941443;29;20031;-74
2023/09/10 06:24:08;;;;;;;18.27;10.90;;;21.90;99.90;;;21.66;66.56;101374.13;4941204;28;20037;-74
2023/09/10 06:26:34;;;;;;;14.77;10.95;;;21.80;99.90;;;21.79;66.77;101369.47;4943967;29;20031;-74
2023/09/10 06:29:01;;;;;;;17.50;11.77;;;21.80;99.90;;;22.56;65.07;101372.81;4942549;29;20043;-75
2023/09/10 06:31:27;;;;;;;12.93;10.25;;;21.80;99.90;;;22.31;65.53;101369.56;4957573;28;20064;-75
2023/09/10 06:33:54;;;;;;;15.75;10.48;;;22.10;99.90;;;23.00;64.24;101382.38;4940738;29;20036;-75
2023/09/10 06:36:21;;;;;;;13.68;9.98;;;22.30;99.90;;;22.62;64.34;101366.91;4940712;29;20114;-75
2023/09/10 06:38:47;;;;;;;20.38;10.40;;;22.40;99.90;;;22.82;64.48;101374.06;4955162;28;20119;-75
2023/09/10 06:41:15;;;;;;;14.90;10.13;;;22.60;99.90;;;24.40;61.48;101399.13;4941743;28;20170;-73
2023/09/10 06:43:41;;;;;;;13.90;9.50;;;23.40;99.90;;;26.71;56.48;101420.31;4941425;28;20031;-75
2023/09/10 06:46:07;;;;;;;12.93;9.40;;;24.80;99.90;;;29.78;49.93;101455.94;4958042;28;20106;-75
2023/09/10 06:48:33;;;;;;;16.08;9.18;;;26.70;99.90;;;32.03;45.70;101478.47;4941817;28;20118;-75
2023/09/10 06:51:00;;;;;;;13.00;9.00;;;28.60;99.90;;;33.88;42.88;101492.59;4944166;28;20051;-75
2023/09/10 06:53:27;;;;;;;15.55;8.50;;;30.40;99.90;;;35.30;39.92;101515.03;4941746;29;20114;-75
2023/09/10 06:55:54;;;;;;;11.25;8.60;;;31.90;99.80;;;36.23;38.34;101538.38;4939484;29;20032;-75
2023/09/10 06:58:21;;;;;;;11.40;8.70;;;33.00;98.30;;;36.90;37.53;101544.13;4932312;29;20089;-74
2023/09/10 07:00:46;;;;;;;11.13;8.38;;;34.00;96.30;;;37.96;35.57;101550.25;4940970;29;20079;-75
2023/09/10 07:03:13;;;;;;;17.33;7.72;;;35.10;95.00;;;38.64;34.76;101570.13;4940603;28;20430;-75
2023/09/10 07:05:40;;;;;;;9.57;7.90;;;36.00;93.90;;;39.31;33.42;101575.25;4959516;28;20035;-75
2023/09/10 07:08:07;;;;;;;8.60;7.05;;;36.90;92.00;;;39.87;32.65;101592.97;4943867;29;20098;-75
2023/09/10 07:10:33;;;;;;;9.23;6.85;;;37.70;91.40;;;40.42;31.38;101602.53;4957291;28;20034;-75
2023/09/10 07:13:03;;;;;;;9.60;7.30;;;38.50;89.10;;;40.68;30.97;101616.75;4941611;29;20035;-75
2023/09/10 07:15:28;;;;;;;12.23;6.90;;;39.00;85.20;;;40.51;30.51;101614.84;4957150;28;20037;-75
2023/09/10 07:17:54;;;;;;;11.45;7.35;;;39.20;86.00;;;40.71;30.82;101616.25;4942529;28;20044;-74
2023/09/10 07:20:20;;;;;;;11.75;6.97;;;39.60;85.30;;;41.03;30.07;101623.94;4942182;29;20051;-75
2023/09/10 07:22:45;;;;;;;16.65;6.65;;;39.90;84.20;;;41.25;30.10;101624.81;4957386;28;21292;-75
2023/09/10 07:25:11;;;;;;;8.88;6.43;;;40.30;82.90;;;41.54;29.61;101631.03;4939217;29;20039;-75
2023/09/10 07:27:37;;;;;;;9.77;7.10;;;40.70;80.80;;;41.92;29.24;101634.78;4957888;28;20031;-75
2023/09/10 07:30:04;;;;;;;11.93;6.85;;;41.10;79.30;;;42.21;28.63;101642.88;4940370;29;20363;-72
2023/09/10 07:32:30;;;;;;;9.75;6.47;;;41.50;78.40;;;42.38;27.83;101653.84;4955875;28;20066;-77
2023/09/10 07:34:55;;;;;;;10.43;6.50;;;41.80;77.20;;;42.68;27.86;101642.22;4943035;29;20417;-78
2023/09/10 07:37:21;;;;;;;9.60;6.20;;;42.20;74.30;;;42.85;27.21;101655.91;4922178;29;20055;-77
2023/09/10 07:39:47;;;;;;;10.07;6.32;;;42.40;74.10;;;42.95;27.04;101638.53;4940590;28;20035;-78
2023/09/10 07:42:12;;;;;;;11.15;5.65;;;42.60;73.40;;;42.99;27.21;101637.72;4958244;28;20032;-75
2023/09/10 07:44:38;;;;;;;9.55;5.88;;;42.70;69.30;;;42.94;26.67;101645.16;4939772;29;20056;-74
2023/09/10 07:47:04;;;;;;;14.90;5.90;;;42.80;68.80;;;42.80;26.69;101640.06;4941322;29;20032;-77
2023/09/10 07:49:30;;;;;;;6.82;5.50;;;42.70;66.00;;;42.32;26.73;101635.50;4941740;28;20039;-77
2023/09/10 07:51:56;;;;;;;7.40;6.05;;;42.70;69.60;;;42.54;27.08;101622.44;4939977;29;20673;-78
2023/09/10 07:54:21;;;;;;;11.05;6.07;;;42.60;69.50;;;42.22;27.03;101620.47;4939947;29;20050;-75
2023/09/10 07:56:47;;;;;;;9.05;5.53;;;42.70;69.20;;;42.34;26.42;101616.72;4940143;29;20521;-77
2023/09/10 07:59:13;;;;;;;8.30;5.90;;;42.80;68.60;;;42.39;26.70;101616.75;4941370;29;20035;-78
2023/09/10 08:01:39;;;;;;;7.70;5.72;;;42.90;65.50;;;42.31;26.34;101606.16;4956476;28;20034;-75
2023/09/10 08:04:05;;;;;;;8.68;6.18;;;42.80;64.30;;;41.85;27.10;101594.63;4938569;29;20042;-75
2023/09/10 08:06:31;;;;;;;8.68;5.95;;;42.70;68.20;;;42.03;27.00;101597.03;4941329;29;20075;-76
2023/09/10 08:08:57;;;;;;;9.55;6.05;;;42.60;67.20;;;41.77;27.05;101591.25;4942000;28;20486;-74
2023/09/10 08:11:22;;;;;;;9.63;6.30;;;42.50;64.60;;;41.54;27.45;101585.97;4925169;29;20031;-74
2023/09/10 08:13:48;;;;;;;9.25;5.82;;;42.30;67.30;;;41.36;28.16;101576.06;4942631;29;20610;-74
2023/09/10 08:16:15;;;;;;;8.00;6.28;;;42.30;66.90;;;41.43;27.94;101567.56;4939850;29;20035;-75
2023/09/10 08:18:41;;;;;;;7.28;5.47;;;42.20;67.80;;;41.13;28.00;101563.31;4941474;29;20533;-74
2023/09/10 08:21:07;;;;;;;10.15;6.28;;;41.90;67.60;;;40.98;28.08;101564.78;4956366;28;20043;-76
2023/09/10 08:23:33;;;;;;;7.60;5.90;;;41.50;65.20;;;40.24;28.87;101555.84;4943812;28;20046;-75
2023/09/10 08:25:58;;;;;;;7.47;5.80;;;41.20;66.10;;;39.91;29.26;101536.25;4940563;28;20060;-74
2023/09/10 08:28:24;;;;;;;9.90;6.03;;;40.80;67.00;;;39.64;29.67;101529.69;4939603;28;20028;-75
2023/09/10 08:30:51;;;;;;;10.70;6.22;;;40.50;68.90;;;39.30;30.56;101533.09;4939332;29;20047;-74
2023/09/10 08:33:17;;;;;;;10.07;5.93;;;40.30;69.80;;;39.36;30.02;101525.78;4956247;28;20034;-74
2023/09/10 08:35:48;;;;;;;10.60;5.57;;;40.10;68.40;;;39.28;30.02;101520.66;4943854;28;20035;-74
2023/09/10 08:38:15;;;;;;;11.18;5.75;;;39.90;70.00;;;39.08;30.66;101510.06;4946111;29;20055;-77
2023/09/10 08:41:28;;;;;;;10.70;5.65;;;39.70;68.00;;;38.75;29.53;101511.53;4944749;29;20483;-77
2023/09/10 08:43:58;;;;;;;8.27;5.00;;;39.50;70.00;;;38.75;30.09;101506.03;4943212;29;20441;-74
2023/09/10 08:46:30;;;;;;;6.07;5.10;;;39.40;68.60;;;38.64;30.15;101504.97;4942407;29;20040;-77
2023/09/10 08:49:00;;;;;;;6.60;5.18;;;39.10;67.80;;;38.32;30.08;101499.78;4957629;28;20035;-74
2023/09/10 08:51:28;;;;;;;10.25;4.90;;;38.90;70.10;;;38.15;30.34;101496.06;4926880;29;20035;-77
2023/09/10 08:53:57;;;;;;;8.65;5.45;;;38.60;68.10;;;37.87;30.95;101486.53;4959427;28;20051;-77
2023/09/10 08:56:25;;;;;;;7.75;5.22;;;38.20;68.50;;;37.35;31.25;101473.28;4965572;28;20114;-77
2023/09/10 08:58:52;;;;;;;8.27;5.05;;;37.80;70.30;;;37.01;31.92;101462.94;4957842;28;20712;-77
2023/09/10 09:01:19;;;;;;;6.82;5.00;;;37.50;71.40;;;36.79;32.18;101460.66;4946406;29;20126;-76
2023/09/10 09:03:46;;;;;;;7.70;4.57;;;37.20;71.50;;;36.53;32.12;101454.34;4943585;29;20457;-77
2023/09/10 09:06:12;;;;;;;9.90;4.97;;;36.80;70.80;;;36.27;33.03;101447.22;4959402;28;20630;-78
2023/09/10 09:08:44;;;;;;;12.23;5.32;;;36.30;69.80;;;35.60;32.64;101438.63;4945418;28;20075;-77
2023/09/10 09:11:13;;;;;;;10.18;5.25;;;35.70;72.40;;;35.04;34.07;101431.94;4942813;28;20046;-77
2023/09/10 09:13:47;;;;;;;9.65;5.38;;;35.20;73.60;;;34.48;34.63;101422.41;4958319;28;20031;-77
2023/09/10 09:16:13;;;;;;;8.48;4.95;;;34.70;74.20;;;34.08;35.87;101410.63;4943575;29;20038;-77
2023/09/10 09:18:40;;;;;;;9.65;5.10;;;34.40;75.80;;;33.84;36.29;101398.44;4957196;28;20043;-76
2023/09/10 09:21:19;;;;;;;18.38;4.95;;;34.20;76.20;;;33.68;35.60;101399.72;4940296;29;20095;-78
2023/09/10 09:24:04;;;;;;;9.52;4.82;;;33.90;75.30;;;33.34;35.68;101392.47;4957274;28;20363;-77
2023/09/10 09:26:30;;;;;;;6.43;5.20;;;33.60;75.50;;;32.96;37.29;101377.44;4944929;29;20031;-77
2023/09/10 09:29:00;;;;;;;11.38;4.93;;;33.40;77.60;;;32.78;36.72;101379.84;4959822;28;20043;-78
2023/09/10 09:31:26;;;;;;;8.07;4.85;;;33.20;77.60;;;32.78;36.94;101375.22;4925803;29;20078;-77
2023/09/10 09:33:53;;;;;;;16.67;4.72;;;33.10;77.20;;;32.64;36.98;101374.34;4943633;28;20493;-77
2023/09/10 09:36:29;;;;;;;12.23;5.13;;;33.10;78.10;;;32.78;36.79;101375.22;4943596;28;20027;-77
2023/09/10 09:38:56;;;;;;;14.63;4.43;;;33.10;76.90;;;32.85;36.05;101381.59;4959239;28;20043;-78
2023/09/10 09:41:25;;;;;;;7.15;4.80;;;33.20;75.70;;;32.90;35.89;101383.69;4941332;29;20063;-77
2023/09/10 09:43:51;;;;;;;9.57;4.43;;;33.20;77.20;;;32.89;36.81;101377.41;4941662;28;20027;-77
2023/09/10 09:46:17;;;;;;;13.20;4.78;;;33.30;76.80;;;32.98;36.40;101382.66;4943612;29;20401;-77
2023/09/10 09:48:46;;;;;;;7.05;4.60;;;33.30;77.50;;;33.00;37.14;101375.13;4930254;29;20031;-77
2023/09/10 09:51:17;;;;;;;6.20;4.43;;;33.30;77.60;;;33.07;35.72;101371.41;4941822;29;20035;-77
2023/09/10 09:53:44;;;;;;;9.07;4.75;;;33.40;75.80;;;33.10;35.69;101383.78;4956476;28;20039;-77
2023/09/10 09:56:10;;;;;;;11.23;4.63;;;33.50;76.80;;;33.13;36.23;101380.66;4942614;28;20037;-77
2023/09/10 09:58:38;;;;;;;6.90;4.55;;;33.50;75.40;;;33.17;35.85;101375.63;4958698;28;20039;-77
2023/09/10 10:01:06;;;;;;;9.63;4.40;;;33.50;76.90;;;33.07;36.15;101376.03;4940802;29;20393;-77
2023/09/10 10:03:33;;;;;;;8.07;4.97;;;33.40;76.90;;;33.01;36.90;101371.34;4943846;29;20031;-78
2023/09/10 10:06:02;;;;;;;9.52;5.03;;;33.40;76.50;;;33.03;36.40;101374.72;4927333;29;20659;-77